sensor_id;sensor_type;location;lat;lon;timestamp;pressure;altitude;pressure_sealevel;temperature;humidity
79129;BME280;68529;43.286;23.360;2023-12-29T00:01:18;99866.88;;;4.14;63.80
79129;BME280;68529;43.286;23.360;2023-12-29T00:03:44;99872.97;;;4.13;63.67
79129;BME280;68529;43.286;23.360;2023-12-29T00:06:09;99864.31;;;4.09;63.91
79129;BME280;68529;43.286;23.360;2023-12-29T00:08:36;99866.00;;;4.03;63.68
79129;BME280;68529;43.286;23.360;2023-12-29T00:11:02;99870.31;;;3.92;63.88
79129;BME280;68529;43.286;23.360;2023-12-29T00:13:27;99859.06;;;3.82;63.99
79129;BME280;68529;43.286;23.360;2023-12-29T00:15:53;99859.88;;;3.71;64.46
79129;BME280;68529;43.286;23.360;2023-12-29T00:18:19;99865.94;;;3.77;64.49
79129;BME280;68529;43.286;23.360;2023-12-29T00:20:45;99872.06;;;3.96;64.13
79129;BME280;68529;43.286;23.360;2023-12-29T00:23:10;99882.47;;;3.99;64.00
79129;BME280;68529;43.286;23.360;2023-12-29T00:25:38;99873.81;;;4.01;63.85
79129;BME280;68529;43.286;23.360;2023-12-29T00:28:05;99873.78;;;3.91;63.80
79129;BME280;68529;43.286;23.360;2023-12-29T00:30:30;99874.63;;;3.85;63.84
79129;BME280;68529;43.286;23.360;2023-12-29T00:32:56;99878.94;;;3.80;64.09
79129;BME280;68529;43.286;23.360;2023-12-29T00:35:21;99880.66;;;3.68;64.00
79129;BME280;68529;43.286;23.360;2023-12-29T00:37:47;99885.81;;;3.59;64.45
79129;BME280;68529;43.286;23.360;2023-12-29T00:40:12;99885.78;;;3.51;64.50
79129;BME280;68529;43.286;23.360;2023-12-29T00:42:38;99878.84;;;3.54;64.86
79129;BME280;68529;43.286;23.360;2023-12-29T00:45:04;99881.50;;;3.65;65.06
79129;BME280;68529;43.286;23.360;2023-12-29T00:47:30;99884.97;;;3.64;64.59
79129;BME280;68529;43.286;23.360;2023-12-29T00:49:55;99879.78;;;3.63;65.00
79129;BME280;68529;43.286;23.360;2023-12-29T00:52:21;99881.47;;;3.61;65.47
79129;BME280;68529;43.286;23.360;2023-12-29T00:54:46;99887.56;;;3.60;65.64
79129;BME280;68529;43.286;23.360;2023-12-29T00:57:12;99884.09;;;3.62;65.59
79129;BME280;68529;43.286;23.360;2023-12-29T00:59:37;99882.28;;;3.43;65.78
79129;BME280;68529;43.286;23.360;2023-12-29T01:02:06;99887.53;;;3.55;66.29
79129;BME280;68529;43.286;23.360;2023-12-29T01:04:31;99887.59;;;3.66;66.79
79129;BME280;68529;43.286;23.360;2023-12-29T01:06:57;99893.63;;;3.69;66.38
79129;BME280;68529;43.286;23.360;2023-12-29T01:09:22;99885.84;;;3.69;66.12
79129;BME280;68529;43.286;23.360;2023-12-29T01:11:48;99880.69;;;3.74;66.50
79129;BME280;68529;43.286;23.360;2023-12-29T01:14:13;99885.00;;;3.78;66.35
79129;BME280;68529;43.286;23.360;2023-12-29T01:16:39;99887.59;;;3.78;66.46
79129;BME280;68529;43.286;23.360;2023-12-29T01:19:05;99888.50;;;3.87;66.52
79129;BME280;68529;43.286;23.360;2023-12-29T01:21:30;99892.84;;;3.97;65.86
79129;BME280;68529;43.286;23.360;2023-12-29T01:24:00;99885.06;;;4.00;65.83
79129;BME280;68529;43.286;23.360;2023-12-29T01:26:26;99885.91;;;3.95;66.09
79129;BME280;68529;43.286;23.360;2023-12-29T01:28:52;99882.47;;;3.93;65.83
79129;BME280;68529;43.286;23.360;2023-12-29T01:31:17;99882.47;;;3.93;65.64
79129;BME280;68529;43.286;23.360;2023-12-29T01:33:43;99872.91;;;3.87;65.75
79129;BME280;68529;43.286;23.360;2023-12-29T01:36:08;99879.00;;;3.98;66.08
79129;BME280;68529;43.286;23.360;2023-12-29T01:38:34;99880.72;;;3.95;65.64
79129;BME280;68529;43.286;23.360;2023-12-29T01:40:59;99874.63;;;3.88;65.86
79129;BME280;68529;43.286;23.360;2023-12-29T01:43:24;99863.41;;;3.92;66.16
79129;BME280;68529;43.286;23.360;2023-12-29T01:45:50;99864.28;;;3.99;65.93
79129;BME280;68529;43.286;23.360;2023-12-29T01:48:15;99855.59;;;3.97;66.18
79129;BME280;68529;43.286;23.360;2023-12-29T01:50:40;99844.34;;;4.01;66.35
79129;BME280;68529;43.286;23.360;2023-12-29T01:53:06;99839.19;;;4.13;65.85
79129;BME280;68529;43.286;23.360;2023-12-29T01:55:33;99840.91;;;4.26;66.06
79129;BME280;68529;43.286;23.360;2023-12-29T01:57:58;99837.44;;;4.20;66.27
79129;BME280;68529;43.286;23.360;2023-12-29T02:00:25;99838.28;;;4.00;66.51
79129;BME280;68529;43.286;23.360;2023-12-29T02:02:51;99828.78;;;4.04;66.65
79129;BME280;68529;43.286;23.360;2023-12-29T02:05:17;99824.41;;;4.13;66.17
79129;BME280;68529;43.286;23.360;2023-12-29T02:07:45;99823.56;;;4.25;66.13
79129;BME280;68529;43.286;23.360;2023-12-29T02:10:12;99813.19;;;4.34;66.25
79129;BME280;68529;43.286;23.360;2023-12-29T02:12:40;99814.88;;;4.41;66.10
79129;BME280;68529;43.286;23.360;2023-12-29T02:15:06;99815.75;;;4.42;66.29
79129;BME280;68529;43.286;23.360;2023-12-29T02:18:02;99812.31;;;4.37;66.30
79129;BME280;68529;43.286;23.360;2023-12-29T02:20:30;99807.09;;;4.49;66.28
79129;BME280;68529;43.286;23.360;2023-12-29T02:22:56;99811.44;;;4.38;66.47
79129;BME280;68529;43.286;23.360;2023-12-29T02:25:21;99807.97;;;4.34;66.63
79129;BME280;68529;43.286;23.360;2023-12-29T02:28:03;99807.09;;;4.37;66.53
79129;BME280;68529;43.286;23.360;2023-12-29T02:30:46;99800.19;;;4.43;66.54
79129;BME280;68529;43.286;23.360;2023-12-29T02:33:19;99801.91;;;4.25;66.46
79129;BME280;68529;43.286;23.360;2023-12-29T02:35:48;99811.44;;;4.07;66.82
79129;BME280;68529;43.286;23.360;2023-12-29T02:38:14;99807.97;;;4.19;66.70
79129;BME280;68529;43.286;23.360;2023-12-29T02:40:40;99809.69;;;4.31;66.75
79129;BME280;68529;43.286;23.360;2023-12-29T02:43:05;99808.84;;;4.23;66.80
79129;BME280;68529;43.286;23.360;2023-12-29T02:45:31;99806.25;;;4.29;66.89
79129;BME280;68529;43.286;23.360;2023-12-29T02:47:56;99791.44;;;4.64;66.59
79129;BME280;68529;43.286;23.360;2023-12-29T02:50:22;99793.19;;;4.80;66.08
79129;BME280;68529;43.286;23.360;2023-12-29T02:52:48;99787.94;;;4.83;65.29
79129;BME280;68529;43.286;23.360;2023-12-29T02:55:13;99783.59;;;4.90;65.27
79129;BME280;68529;43.286;23.360;2023-12-29T02:57:38;99781.81;;;4.98;65.40
79129;BME280;68529;43.286;23.360;2023-12-29T03:00:05;99790.47;;;5.10;65.24
79129;BME280;68529;43.286;23.360;2023-12-29T03:02:31;99785.31;;;4.92;65.19
79129;BME280;68529;43.286;23.360;2023-12-29T03:04:56;99778.50;;;4.52;64.84
79129;BME280;68529;43.286;23.360;2023-12-29T03:07:21;99769.81;;;4.45;64.67
79129;BME280;68529;43.286;23.360;2023-12-29T03:09:47;99772.44;;;4.44;64.86
79129;BME280;68529;43.286;23.360;2023-12-29T03:12:12;99767.25;;;4.13;64.62
79129;BME280;68529;43.286;23.360;2023-12-29T03:14:38;99766.38;;;3.96;64.75
79129;BME280;68529;43.286;23.360;2023-12-29T03:17:03;99764.66;;;3.88;64.95
79129;BME280;68529;43.286;23.360;2023-12-29T03:19:29;99762.03;;;3.83;65.22
79129;BME280;68529;43.286;23.360;2023-12-29T03:21:54;99754.25;;;3.79;65.81
79129;BME280;68529;43.286;23.360;2023-12-29T03:24:20;99749.03;;;3.73;65.49
79129;BME280;68529;43.286;23.360;2023-12-29T03:26:45;99745.56;;;3.69;65.84
79129;BME280;68529;43.286;23.360;2023-12-29T03:29:11;99750.78;;;3.60;66.13
79129;BME280;68529;43.286;23.360;2023-12-29T03:31:36;99748.16;;;3.59;66.38
79129;BME280;68529;43.286;23.360;2023-12-29T03:34:02;99731.72;;;3.69;66.12
79129;BME280;68529;43.286;23.360;2023-12-29T03:36:27;99734.31;;;3.78;66.14
79129;BME280;68529;43.286;23.360;2023-12-29T03:38:53;99737.81;;;3.90;66.01
79129;BME280;68529;43.286;23.360;2023-12-29T03:41:18;99742.13;;;3.93;65.67
79129;BME280;68529;43.286;23.360;2023-12-29T03:43:44;99730.88;;;3.92;66.07
79129;BME280;68529;43.286;23.360;2023-12-29T03:46:20;99733.47;;;3.88;65.96
79129;BME280;68529;43.286;23.360;2023-12-29T03:48:46;99731.75;;;4.02;65.74
79129;BME280;68529;43.286;23.360;2023-12-29T03:51:11;99730.88;;;4.07;66.07
79129;BME280;68529;43.286;23.360;2023-12-29T03:53:37;99739.50;;;4.22;65.89
79129;BME280;68529;43.286;23.360;2023-12-29T03:56:12;99738.66;;;4.21;65.97
79129;BME280;68529;43.286;23.360;2023-12-29T03:58:37;99743.84;;;4.15;65.63
79129;BME280;68529;43.286;23.360;2023-12-29T04:01:03;99745.59;;;4.11;65.46
79129;BME280;68529;43.286;23.360;2023-12-29T04:03:29;99744.72;;;4.00;65.61
79129;BME280;68529;43.286;23.360;2023-12-29T04:05:54;99756.00;;;4.10;65.97
79129;BME280;68529;43.286;23.360;2023-12-29T04:08:19;99760.31;;;4.08;66.01
79129;BME280;68529;43.286;23.360;2023-12-29T04:10:45;99755.97;;;4.22;65.67
79129;BME280;68529;43.286;23.360;2023-12-29T04:13:10;99750.75;;;4.33;65.64
79129;BME280;68529;43.286;23.360;2023-12-29T04:15:36;99757.72;;;4.08;65.72
79129;BME280;68529;43.286;23.360;2023-12-29T04:18:01;99756.84;;;4.21;66.08
79129;BME280;68529;43.286;23.360;2023-12-29T04:20:27;99752.47;;;4.44;66.00
79129;BME280;68529;43.286;23.360;2023-12-29T04:22:52;99744.72;;;3.90;66.60
79129;BME280;68529;43.286;23.360;2023-12-29T04:25:17;99743.88;;;3.88;66.79
79129;BME280;68529;43.286;23.360;2023-12-29T04:27:43;99745.56;;;4.22;66.40
79129;BME280;68529;43.286;23.360;2023-12-29T04:30:09;99747.28;;;4.37;66.07
79129;BME280;68529;43.286;23.360;2023-12-29T04:32:34;99746.41;;;4.47;65.53
79129;BME280;68529;43.286;23.360;2023-12-29T04:34:59;99756.75;;;4.63;65.33
79129;BME280;68529;43.286;23.360;2023-12-29T04:37:25;99748.94;;;4.72;65.06
79129;BME280;68529;43.286;23.360;2023-12-29T04:39:50;99758.50;;;4.58;64.69
79129;BME280;68529;43.286;23.360;2023-12-29T04:42:15;99752.44;;;4.72;64.68
79129;BME280;68529;43.286;23.360;2023-12-29T04:44:43;99749.84;;;4.68;64.28
79129;BME280;68529;43.286;23.360;2023-12-29T04:47:08;99746.34;;;4.71;64.67
79129;BME280;68529;43.286;23.360;2023-12-29T04:49:33;99749.84;;;4.68;64.58
79129;BME280;68529;43.286;23.360;2023-12-29T04:51:59;99757.66;;;4.59;64.44
79129;BME280;68529;43.286;23.360;2023-12-29T04:54:25;99762.03;;;4.17;64.28
79129;BME280;68529;43.286;23.360;2023-12-29T04:56:50;99761.19;;;4.02;64.31
79129;BME280;68529;43.286;23.360;2023-12-29T04:59:16;99758.56;;;3.86;64.31
79129;BME280;68529;43.286;23.360;2023-12-29T05:01:41;99761.19;;;3.71;65.03
79129;BME280;68529;43.286;23.360;2023-12-29T05:04:06;99770.69;;;3.78;64.81
79129;BME280;68529;43.286;23.360;2023-12-29T05:06:32;99760.31;;;3.93;65.01
79129;BME280;68529;43.286;23.360;2023-12-29T05:08:57;99762.06;;;4.06;64.97
79129;BME280;68529;43.286;23.360;2023-12-29T05:11:22;99766.38;;;4.24;64.62
79129;BME280;68529;43.286;23.360;2023-12-29T05:13:48;99763.75;;;4.22;64.04
79129;BME280;68529;43.286;23.360;2023-12-29T05:16:13;99758.59;;;3.90;63.62
79129;BME280;68529;43.286;23.360;2023-12-29T05:18:38;99759.34;;;3.29;65.19
79129;BME280;68529;43.286;23.360;2023-12-29T05:21:04;99763.69;;;3.31;65.29
79129;BME280;68529;43.286;23.360;2023-12-29T05:23:29;99768.88;;;3.31;65.24
79129;BME280;68529;43.286;23.360;2023-12-29T05:25:55;99780.13;;;3.36;65.11
79129;BME280;68529;43.286;23.360;2023-12-29T05:28:20;99781.00;;;3.41;65.76
79129;BME280;68529;43.286;23.360;2023-12-29T05:30:45;99779.28;;;3.39;65.03
79129;BME280;68529;43.286;23.360;2023-12-29T05:33:11;99781.88;;;3.39;64.90
79129;BME280;68529;43.286;23.360;2023-12-29T05:35:36;99783.63;;;3.44;65.55
79129;BME280;68529;43.286;23.360;2023-12-29T05:38:01;99784.47;;;3.36;65.25
79129;BME280;68529;43.286;23.360;2023-12-29T05:40:27;99779.31;;;3.40;65.56
79129;BME280;68529;43.286;23.360;2023-12-29T05:42:53;99777.50;;;3.27;65.57
79129;BME280;68529;43.286;23.360;2023-12-29T05:45:19;99787.84;;;3.21;65.32
79129;BME280;68529;43.286;23.360;2023-12-29T05:47:44;99786.16;;;3.20;65.72
79129;BME280;68529;43.286;23.360;2023-12-29T05:50:09;99785.25;;;3.09;65.59
79129;BME280;68529;43.286;23.360;2023-12-29T05:52:35;99778.28;;;3.01;65.59
79129;BME280;68529;43.286;23.360;2023-12-29T05:55:00;99790.31;;;2.88;66.08
79129;BME280;68529;43.286;23.360;2023-12-29T05:57:25;99784.22;;;2.80;65.72
79129;BME280;68529;43.286;23.360;2023-12-29T05:59:51;99784.22;;;2.75;66.14
79129;BME280;68529;43.286;23.360;2023-12-29T06:02:17;99782.41;;;2.65;65.91
79129;BME280;68529;43.286;23.360;2023-12-29T06:04:42;99784.97;;;2.61;66.93
79129;BME280;68529;43.286;23.360;2023-12-29T06:07:08;99791.03;;;2.58;66.82
79129;BME280;68529;43.286;23.360;2023-12-29T06:09:33;99789.28;;;2.57;66.50
79129;BME280;68529;43.286;23.360;2023-12-29T06:11:58;99793.63;;;2.57;66.48
79129;BME280;68529;43.286;23.360;2023-12-29T06:14:24;99791.03;;;2.57;66.46
79129;BME280;68529;43.286;23.360;2023-12-29T06:16:49;99786.72;;;2.62;66.42
79129;BME280;68529;43.286;23.360;2023-12-29T06:19:14;99804.91;;;2.69;66.31
79129;BME280;68529;43.286;23.360;2023-12-29T06:21:43;99796.25;;;2.64;66.40
79129;BME280;68529;43.286;23.360;2023-12-29T06:24:12;99803.19;;;2.67;66.83
79129;BME280;68529;43.286;23.360;2023-12-29T06:26:37;99802.28;;;2.62;66.68
79129;BME280;68529;43.286;23.360;2023-12-29T06:29:08;99812.63;;;2.59;66.49
79129;BME280;68529;43.286;23.360;2023-12-29T06:31:33;99803.16;;;2.65;66.01
79129;BME280;68529;43.286;23.360;2023-12-29T06:33:59;99811.88;;;2.75;66.68
79129;BME280;68529;43.286;23.360;2023-12-29T06:36:25;99804.13;;;2.82;66.12
79129;BME280;68529;43.286;23.360;2023-12-29T06:38:51;99802.44;;;2.87;66.34
79129;BME280;68529;43.286;23.360;2023-12-29T06:41:18;99807.66;;;2.95;65.91
79129;BME280;68529;43.286;23.360;2023-12-29T06:43:44;99812.88;;;3.01;66.34
79129;BME280;68529;43.286;23.360;2023-12-29T06:46:09;99817.19;;;3.01;66.42
79129;BME280;68529;43.286;23.360;2023-12-29T06:48:36;99811.19;;;3.09;66.43
79129;BME280;68529;43.286;23.360;2023-12-29T06:51:01;99821.63;;;3.18;66.68
79129;BME280;68529;43.286;23.360;2023-12-29T06:53:27;99815.59;;;3.36;66.10
79129;BME280;68529;43.286;23.360;2023-12-29T06:55:52;99817.41;;;3.61;65.71
79129;BME280;68529;43.286;23.360;2023-12-29T06:58:17;99810.53;;;3.81;65.49
79129;BME280;68529;43.286;23.360;2023-12-29T07:00:43;99809.69;;;4.11;64.96
79129;BME280;68529;43.286;23.360;2023-12-29T07:03:08;99812.31;;;4.35;64.43
79129;BME280;68529;43.286;23.360;2023-12-29T07:05:34;99810.53;;;4.61;63.84
79129;BME280;68529;43.286;23.360;2023-12-29T07:07:59;99816.59;;;4.72;63.59
79129;BME280;68529;43.286;23.360;2023-12-29T07:10:25;99816.53;;;4.95;63.28
79129;BME280;68529;43.286;23.360;2023-12-29T07:12:50;99820.81;;;5.19;62.68
79129;BME280;68529;43.286;23.360;2023-12-29T07:15:15;99816.34;;;5.47;62.11
79129;BME280;68529;43.286;23.360;2023-12-29T07:17:41;99814.47;;;5.67;61.58
79129;BME280;68529;43.286;23.360;2023-12-29T07:20:07;99800.38;;;6.06;61.28
79129;BME280;68529;43.286;23.360;2023-12-29T07:22:32;99801.66;;;6.61;60.78
79129;BME280;68529;43.286;23.360;2023-12-29T07:24:58;99810.69;;;7.09;59.91
79129;BME280;68529;43.286;23.360;2023-12-29T07:27:23;99812.28;;;7.22;58.55
79129;BME280;68529;43.286;23.360;2023-12-29T07:29:48;99811.50;;;7.16;58.50
79129;BME280;68529;43.286;23.360;2023-12-29T07:32:14;99806.06;;;7.34;58.71
79129;BME280;68529;43.286;23.360;2023-12-29T07:34:39;99804.06;;;7.51;57.71
79129;BME280;68529;43.286;23.360;2023-12-29T07:37:05;99810.16;;;7.53;57.47
79129;BME280;68529;43.286;23.360;2023-12-29T07:39:30;99815.22;;;7.67;57.40
79129;BME280;68529;43.286;23.360;2023-12-29T07:41:55;99813.97;;;7.90;56.87
79129;BME280;68529;43.286;23.360;2023-12-29T07:44:21;99805.03;;;8.06;56.71
79129;BME280;68529;43.286;23.360;2023-12-29T07:46:46;99807.41;;;8.23;56.59
79129;BME280;68529;43.286;23.360;2023-12-29T07:49:12;99815.78;;;8.45;55.82
79129;BME280;68529;43.286;23.360;2023-12-29T07:51:41;99813.75;;;8.62;55.73
79129;BME280;68529;43.286;23.360;2023-12-29T07:54:07;99811.69;;;8.79;55.54
79129;BME280;68529;43.286;23.360;2023-12-29T07:56:33;99817.41;;;8.99;55.35
79129;BME280;68529;43.286;23.360;2023-12-29T07:58:58;99814.28;;;9.26;55.20
79129;BME280;68529;43.286;23.360;2023-12-29T08:01:24;99827.81;;;9.47;54.65
79129;BME280;68529;43.286;23.360;2023-12-29T08:03:49;99823.75;;;9.73;54.13
79129;BME280;68529;43.286;23.360;2023-12-29T08:06:14;99817.31;;;9.88;53.86
79129;BME280;68529;43.286;23.360;2023-12-29T08:08:40;99814.38;;;10.02;53.47
79129;BME280;68529;43.286;23.360;2023-12-29T08:11:12;99819.13;;;10.24;53.64
79129;BME280;68529;43.286;23.360;2023-12-29T08:13:40;99821.94;;;10.52;53.01
79129;BME280;68529;43.286;23.360;2023-12-29T08:16:05;99829.44;;;10.32;53.31
79129;BME280;68529;43.286;23.360;2023-12-29T08:18:32;99829.69;;;10.57;53.08
79129;BME280;68529;43.286;23.360;2023-12-29T08:20:57;99833.78;;;10.68;52.80
79129;BME280;68529;43.286;23.360;2023-12-29T08:23:25;99827.03;;;10.92;52.65
79129;BME280;68529;43.286;23.360;2023-12-29T08:25:51;99828.63;;;11.30;52.17
79129;BME280;68529;43.286;23.360;2023-12-29T08:28:17;99822.06;;;11.44;52.05
79129;BME280;68529;43.286;23.360;2023-12-29T08:30:42;99828.25;;;11.73;52.03
79129;BME280;68529;43.286;23.360;2023-12-29T08:33:10;99828.25;;;12.02;51.22
79129;BME280;68529;43.286;23.360;2023-12-29T08:35:37;99830.72;;;12.34;50.92
79129;BME280;68529;43.286;23.360;2023-12-29T08:38:03;99826.75;;;12.49;50.34
79129;BME280;68529;43.286;23.360;2023-12-29T08:40:29;99826.34;;;12.61;50.16
79129;BME280;68529;43.286;23.360;2023-12-29T08:42:54;99828.13;;;12.85;50.02
79129;BME280;68529;43.286;23.360;2023-12-29T08:45:20;99829.41;;;13.24;49.78
79129;BME280;68529;43.286;23.360;2023-12-29T08:47:45;99826.25;;;13.39;49.19
79129;BME280;68529;43.286;23.360;2023-12-29T08:50:11;99817.84;;;13.28;48.92
79129;BME280;68529;43.286;23.360;2023-12-29T08:52:36;99819.88;;;13.45;49.18
79129;BME280;68529;43.286;23.360;2023-12-29T08:55:01;99813.03;;;13.86;48.85
79129;BME280;68529;43.286;23.360;2023-12-29T08:57:27;99819.81;;;14.15;48.60
79129;BME280;68529;43.286;23.360;2023-12-29T08:59:53;99821.47;;;14.17;48.39
79129;BME280;68529;43.286;23.360;2023-12-29T09:02:18;99819.19;;;14.30;48.26
79129;BME280;68529;43.286;23.360;2023-12-29T09:04:43;99805.22;;;14.70;47.75
79129;BME280;68529;43.286;23.360;2023-12-29T09:07:09;99814.97;;;14.89;47.32
79129;BME280;68529;43.286;23.360;2023-12-29T09:09:34;99808.69;;;15.12;46.99
79129;BME280;68529;43.286;23.360;2023-12-29T09:11:59;99813.75;;;15.37;46.83
79129;BME280;68529;43.286;23.360;2023-12-29T09:14:25;99812.38;;;15.67;46.47
79129;BME280;68529;43.286;23.360;2023-12-29T09:16:50;99811.59;;;15.84;46.10
79129;BME280;68529;43.286;23.360;2023-12-29T09:19:16;99802.16;;;15.97;45.62
79129;BME280;68529;43.286;23.360;2023-12-29T09:21:41;99800.41;;;16.14;45.21
79129;BME280;68529;43.286;23.360;2023-12-29T09:24:07;99796.03;;;16.32;44.64
79129;BME280;68529;43.286;23.360;2023-12-29T09:26:32;99794.91;;;16.36;44.41
79129;BME280;68529;43.286;23.360;2023-12-29T09:28:58;99790.00;;;16.64;44.75
79129;BME280;68529;43.286;23.360;2023-12-29T09:31:24;99798.72;;;17.01;44.49
79129;BME280;68529;43.286;23.360;2023-12-29T09:33:49;99786.34;;;17.34;44.62
79129;BME280;68529;43.286;23.360;2023-12-29T09:36:14;99784.38;;;17.70;43.59
79129;BME280;68529;43.286;23.360;2023-12-29T09:38:40;99791.06;;;17.62;42.18
79129;BME280;68529;43.286;23.360;2023-12-29T09:41:11;99782.69;;;17.85;41.89
79129;BME280;68529;43.286;23.360;2023-12-29T09:43:40;99778.22;;;18.01;42.01
79129;BME280;68529;43.286;23.360;2023-12-29T09:46:07;99770.03;;;17.41;41.41
79129;BME280;68529;43.286;23.360;2023-12-29T09:48:34;99761.88;;;17.44;42.40
79129;BME280;68529;43.286;23.360;2023-12-29T09:51:01;99758.19;;;17.80;41.94
79129;BME280;68529;43.286;23.360;2023-12-29T09:53:27;99750.53;;;18.05;41.09
79129;BME280;68529;43.286;23.360;2023-12-29T09:55:54;99751.97;;;18.26;40.48
79129;BME280;68529;43.286;23.360;2023-12-29T09:58:21;99740.44;;;18.41;40.31
79129;BME280;68529;43.286;23.360;2023-12-29T10:00:49;99743.22;;;18.70;39.58
79129;BME280;68529;43.286;23.360;2023-12-29T10:03:14;99732.88;;;18.79;37.52
79129;BME280;68529;43.286;23.360;2023-12-29T10:05:40;99735.94;;;18.73;37.42
79129;BME280;68529;43.286;23.360;2023-12-29T10:08:07;99735.53;;;18.79;36.41
79129;BME280;68529;43.286;23.360;2023-12-29T10:10:34;99728.75;;;19.03;37.37
79129;BME280;68529;43.286;23.360;2023-12-29T10:13:01;99728.38;;;18.95;36.84
79129;BME280;68529;43.286;23.360;2023-12-29T10:15:35;99722.94;;;19.25;37.12
79129;BME280;68529;43.286;23.360;2023-12-29T10:18:20;99719.81;;;19.33;36.05
79129;BME280;68529;43.286;23.360;2023-12-29T10:23:27;99718.13;;;19.87;36.35
79129;BME280;68529;43.286;23.360;2023-12-29T10:25:54;99709.63;;;19.94;35.65
79129;BME280;68529;43.286;23.360;2023-12-29T10:28:20;99714.06;;;20.08;35.62
79129;BME280;68529;43.286;23.360;2023-12-29T10:30:47;99710.41;;;20.23;35.21
79129;BME280;68529;43.286;23.360;2023-12-29T10:33:19;99714.19;;;20.33;34.72
79129;BME280;68529;43.286;23.360;2023-12-29T10:35:56;99707.91;;;20.34;35.06
79129;BME280;68529;43.286;23.360;2023-12-29T10:38:23;99714.31;;;20.44;35.07
79129;BME280;68529;43.286;23.360;2023-12-29T10:40:48;99711.34;;;20.49;35.07
79129;BME280;68529;43.286;23.360;2023-12-29T10:43:21;99708.25;;;20.55;34.70
79129;BME280;68529;43.286;23.360;2023-12-29T10:45:47;99704.00;;;20.65;34.16
79129;BME280;68529;43.286;23.360;2023-12-29T10:48:21;99702.72;;;20.83;34.67
79129;BME280;68529;43.286;23.360;2023-12-29T10:50:47;99697.28;;;20.97;34.00
79129;BME280;68529;43.286;23.360;2023-12-29T10:53:14;99695.28;;;21.01;33.30
79129;BME280;68529;43.286;23.360;2023-12-29T10:55:41;99699.66;;;20.89;33.94
79129;BME280;68529;43.286;23.360;2023-12-29T10:58:07;99686.22;;;21.16;33.54
79129;BME280;68529;43.286;23.360;2023-12-29T11:00:32;99683.00;;;21.23;33.33
79129;BME280;68529;43.286;23.360;2023-12-29T11:02:58;99685.97;;;21.31;33.37
79129;BME280;68529;43.286;23.360;2023-12-29T11:05:27;99677.94;;;21.44;32.82
79129;BME280;68529;43.286;23.360;2023-12-29T11:07:54;99675.81;;;21.49;33.47
79129;BME280;68529;43.286;23.360;2023-12-29T11:10:20;99672.84;;;21.28;32.83
79129;BME280;68529;43.286;23.360;2023-12-29T11:12:47;99677.53;;;21.25;33.33
79129;BME280;68529;43.286;23.360;2023-12-29T11:15:14;99674.88;;;21.25;33.07
79129;BME280;68529;43.286;23.360;2023-12-29T11:17:41;99669.16;;;21.42;32.93
79129;BME280;68529;43.286;23.360;2023-12-29T11:20:15;99675.81;;;21.49;32.59
79129;BME280;68529;43.286;23.360;2023-12-29T11:22:42;99670.53;;;21.47;32.33
79129;BME280;68529;43.286;23.360;2023-12-29T11:25:08;99670.88;;;21.43;32.21
79129;BME280;68529;43.286;23.360;2023-12-29T11:27:34;99670.88;;;21.43;33.00
79129;BME280;68529;43.286;23.360;2023-12-29T11:30:01;99669.88;;;21.57;32.03
79129;BME280;68529;43.286;23.360;2023-12-29T11:32:38;99656.25;;;21.72;32.65
79129;BME280;68529;43.286;23.360;2023-12-29T11:43:57;99643.34;;;21.30;32.63
79129;BME280;68529;43.286;23.360;2023-12-29T11:46:37;99647.41;;;21.35;33.06
79129;BME280;68529;43.286;23.360;2023-12-29T11:49:02;99646.03;;;21.54;32.91
79129;BME280;68529;43.286;23.360;2023-12-29T11:51:34;99635.25;;;21.55;32.82
79129;BME280;68529;43.286;23.360;2023-12-29T11:54:03;99629.00;;;21.67;32.66
79129;BME280;68529;43.286;23.360;2023-12-29T11:59:21;99623.22;;;21.37;32.69
79129;BME280;68529;43.286;23.360;2023-12-29T12:01:58;99621.28;;;21.39;32.67
79129;BME280;68529;43.286;23.360;2023-12-29T12:04:38;99631.66;;;21.43;32.64
79129;BME280;68529;43.286;23.360;2023-12-29T12:07:10;99628.63;;;21.48;31.97
79129;BME280;68529;43.286;23.360;2023-12-29T12:09:38;99631.03;;;21.02;32.25
79129;BME280;68529;43.286;23.360;2023-12-29T12:12:04;99620.94;;;21.07;32.91
79129;BME280;68529;43.286;23.360;2023-12-29T12:14:53;99618.44;;;21.17;32.99
79129;BME280;68529;43.286;23.360;2023-12-29T12:17:32;99623.88;;;21.03;32.69
79129;BME280;68529;43.286;23.360;2023-12-29T12:20:03;99623.91;;;20.77;32.52
79129;BME280;68529;43.286;23.360;2023-12-29T12:22:31;99622.09;;;20.90;33.19
79129;BME280;68529;43.286;23.360;2023-12-29T12:25:00;99619.19;;;21.06;33.27
79129;BME280;68529;43.286;23.360;2023-12-29T12:27:26;99620.06;;;20.94;33.44
79129;BME280;68529;43.286;23.360;2023-12-29T12:29:54;99614.50;;;20.97;33.41
79129;BME280;68529;43.286;23.360;2023-12-29T12:32:26;99622.00;;;20.92;33.24
79129;BME280;68529;43.286;23.360;2023-12-29T12:34:52;99613.44;;;20.74;33.15
79129;BME280;68529;43.286;23.360;2023-12-29T12:37:20;99618.81;;;20.62;33.25
79129;BME280;68529;43.286;23.360;2023-12-29T12:39:45;99616.22;;;20.48;33.44
79129;BME280;68529;43.286;23.360;2023-12-29T12:42:10;99620.28;;;20.53;33.83
79129;BME280;68529;43.286;23.360;2023-12-29T12:44:40;99617.50;;;20.55;33.94
79129;BME280;68529;43.286;23.360;2023-12-29T12:47:09;99606.63;;;20.45;34.13
79129;BME280;68529;43.286;23.360;2023-12-29T12:49:35;99606.59;;;20.32;34.00
79129;BME280;68529;43.286;23.360;2023-12-29T12:52:01;99614.50;;;20.34;34.39
79129;BME280;68529;43.286;23.360;2023-12-29T12:54:27;99609.09;;;20.21;33.85
79129;BME280;68529;43.286;23.360;2023-12-29T12:56:53;99612.09;;;19.51;33.78
79129;BME280;68529;43.286;23.360;2023-12-29T12:59:19;99609.69;;;18.91;34.49
79129;BME280;68529;43.286;23.360;2023-12-29T13:01:44;99607.88;;;19.06;34.78
79129;BME280;68529;43.286;23.360;2023-12-29T13:04:10;99604.94;;;18.96;34.57
79129;BME280;68529;43.286;23.360;2023-12-29T13:06:41;99602.25;;;18.68;35.19
79129;BME280;68529;43.286;23.360;2023-12-29T13:09:09;99610.47;;;18.35;35.40